sensor_id;sensor_type;location;lat;lon;timestamp;P1;durP1;ratioP1;P2;durP2;ratioP2
38653;SDS011;24413;52.450;20.706;2023-01-20T00:00:59;98.20;;;50.58;;
38653;SDS011;24413;52.450;20.706;2023-01-20T00:03:24;92.68;;;45.80;;
38653;SDS011;24413;52.450;20.706;2023-01-20T00:05:50;98.10;;;46.38;;
38653;SDS011;24413;52.450;20.706;2023-01-20T00:08:15;93.20;;;44.45;;
38653;SDS011;24413;52.450;20.706;2023-01-20T00:10:41;111.07;;;50.92;;
38653;SDS011;24413;52.450;20.706;2023-01-20T00:13:06;96.32;;;46.63;;
38653;SDS011;24413;52.450;20.706;2023-01-20T00:15:31;78.57;;;40.33;;
38653;SDS011;24413;52.450;20.706;2023-01-20T00:17:57;85.22;;;42.42;;
38653;SDS011;24413;52.450;20.706;2023-01-20T00:20:22;98.80;;;45.58;;
38653;SDS011;24413;52.450;20.706;2023-01-20T00:22:47;90.85;;;44.13;;
38653;SDS011;24413;52.450;20.706;2023-01-20T00:25:12;87.20;;;42.42;;
38653;SDS011;24413;52.450;20.706;2023-01-20T00:27:38;98.30;;;45.65;;
38653;SDS011;24413;52.450;20.706;2023-01-20T00:30:03;90.65;;;45.75;;
38653;SDS011;24413;52.450;20.706;2023-01-20T00:32:29;78.43;;;39.92;;
38653;SDS011;24413;52.450;20.706;2023-01-20T00:34:54;83.25;;;38.50;;
38653;SDS011;24413;52.450;20.706;2023-01-20T00:37:20;75.30;;;37.42;;
38653;SDS011;24413;52.450;20.706;2023-01-20T00:39:45;81.47;;;39.35;;
38653;SDS011;24413;52.450;20.706;2023-01-20T00:42:10;93.80;;;42.90;;
38653;SDS011;24413;52.450;20.706;2023-01-20T00:44:36;90.40;;;41.38;;
38653;SDS011;24413;52.450;20.706;2023-01-20T00:47:01;102.38;;;44.97;;
38653;SDS011;24413;52.450;20.706;2023-01-20T00:49:26;112.68;;;47.50;;
38653;SDS011;24413;52.450;20.706;2023-01-20T00:51:52;108.53;;;46.90;;
38653;SDS011;24413;52.450;20.706;2023-01-20T00:54:17;105.05;;;49.47;;
38653;SDS011;24413;52.450;20.706;2023-01-20T00:56:42;109.18;;;49.67;;
38653;SDS011;24413;52.450;20.706;2023-01-20T00:59:08;106.47;;;46.30;;
38653;SDS011;24413;52.450;20.706;2023-01-20T01:01:34;113.25;;;50.08;;
38653;SDS011;24413;52.450;20.706;2023-01-20T01:03:59;123.00;;;50.10;;
38653;SDS011;24413;52.450;20.706;2023-01-20T01:06:25;104.88;;;44.13;;
38653;SDS011;24413;52.450;20.706;2023-01-20T01:08:50;95.60;;;42.65;;
38653;SDS011;24413;52.450;20.706;2023-01-20T01:11:15;95.68;;;40.72;;
38653;SDS011;24413;52.450;20.706;2023-01-20T01:13:41;94.15;;;42.92;;
38653;SDS011;24413;52.450;20.706;2023-01-20T01:16:10;95.03;;;41.17;;
38653;SDS011;24413;52.450;20.706;2023-01-20T01:18:36;94.40;;;40.15;;
38653;SDS011;24413;52.450;20.706;2023-01-20T01:21:08;97.43;;;40.58;;
38653;SDS011;24413;52.450;20.706;2023-01-20T01:23:34;94.43;;;40.88;;
38653;SDS011;24413;52.450;20.706;2023-01-20T01:26:00;92.25;;;41.42;;
38653;SDS011;24413;52.450;20.706;2023-01-20T01:28:25;103.82;;;41.33;;
38653;SDS011;24413;52.450;20.706;2023-01-20T01:30:50;107.47;;;42.38;;
38653;SDS011;24413;52.450;20.706;2023-01-20T01:33:16;91.65;;;40.15;;
38653;SDS011;24413;52.450;20.706;2023-01-20T01:35:41;85.32;;;38.70;;
38653;SDS011;24413;52.450;20.706;2023-01-20T01:38:07;87.93;;;38.92;;
38653;SDS011;24413;52.450;20.706;2023-01-20T01:40:32;84.05;;;37.60;;
38653;SDS011;24413;52.450;20.706;2023-01-20T01:42:59;98.60;;;40.42;;
38653;SDS011;24413;52.450;20.706;2023-01-20T01:45:25;84.05;;;38.10;;
38653;SDS011;24413;52.450;20.706;2023-01-20T01:47:56;86.57;;;38.47;;
38653;SDS011;24413;52.450;20.706;2023-01-20T01:50:24;105.93;;;41.85;;
38653;SDS011;24413;52.450;20.706;2023-01-20T01:52:51;90.82;;;38.75;;
38653;SDS011;24413;52.450;20.706;2023-01-20T01:55:17;102.20;;;40.58;;
38653;SDS011;24413;52.450;20.706;2023-01-20T01:57:43;97.63;;;41.60;;
38653;SDS011;24413;52.450;20.706;2023-01-20T02:00:09;103.72;;;42.22;;
38653;SDS011;24413;52.450;20.706;2023-01-20T02:02:34;87.20;;;38.58;;
38653;SDS011;24413;52.450;20.706;2023-01-20T02:05:00;94.97;;;35.78;;
38653;SDS011;24413;52.450;20.706;2023-01-20T02:07:25;88.22;;;37.83;;
38653;SDS011;24413;52.450;20.706;2023-01-20T02:09:51;80.00;;;37.45;;
38653;SDS011;24413;52.450;20.706;2023-01-20T02:12:16;83.70;;;35.42;;
38653;SDS011;24413;52.450;20.706;2023-01-20T02:14:44;84.72;;;36.65;;
38653;SDS011;24413;52.450;20.706;2023-01-20T02:17:29;95.55;;;41.08;;
38653;SDS011;24413;52.450;20.706;2023-01-20T02:28:10;93.85;;;46.75;;
38653;SDS011;24413;52.450;20.706;2023-01-20T02:31:01;89.93;;;44.35;;
38653;SDS011;24413;52.450;20.706;2023-01-20T02:36:01;84.60;;;39.67;;
38653;SDS011;24413;52.450;20.706;2023-01-20T02:43:57;74.45;;;35.67;;
38653;SDS011;24413;52.450;20.706;2023-01-20T02:48:50;72.05;;;34.05;;
38653;SDS011;24413;52.450;20.706;2023-01-20T02:51:18;75.47;;;32.03;;
38653;SDS011;24413;52.450;20.706;2023-01-20T02:53:52;79.38;;;33.60;;
38653;SDS011;24413;52.450;20.706;2023-01-20T02:56:18;81.03;;;35.05;;
38653;SDS011;24413;52.450;20.706;2023-01-20T02:58:48;79.45;;;34.88;;
38653;SDS011;24413;52.450;20.706;2023-01-20T03:01:24;76.68;;;33.63;;
38653;SDS011;24413;52.450;20.706;2023-01-20T03:03:50;80.63;;;35.55;;
38653;SDS011;24413;52.450;20.706;2023-01-20T03:06:18;76.45;;;32.17;;
38653;SDS011;24413;52.450;20.706;2023-01-20T03:08:43;72.97;;;33.95;;
38653;SDS011;24413;52.450;20.706;2023-01-20T03:11:10;78.32;;;35.47;;
38653;SDS011;24413;52.450;20.706;2023-01-20T03:13:39;85.68;;;36.15;;
38653;SDS011;24413;52.450;20.706;2023-01-20T03:16:16;81.90;;;36.28;;
38653;SDS011;24413;52.450;20.706;2023-01-20T03:18:42;82.75;;;36.33;;
38653;SDS011;24413;52.450;20.706;2023-01-20T03:21:08;82.93;;;35.63;;
38653;SDS011;24413;52.450;20.706;2023-01-20T03:23:35;85.32;;;37.20;;
38653;SDS011;24413;52.450;20.706;2023-01-20T03:26:05;92.47;;;37.28;;
38653;SDS011;24413;52.450;20.706;2023-01-20T03:28:31;88.40;;;36.40;;
38653;SDS011;24413;52.450;20.706;2023-01-20T03:30:56;86.05;;;33.53;;
38653;SDS011;24413;52.450;20.706;2023-01-20T03:33:22;86.88;;;35.80;;
38653;SDS011;24413;52.450;20.706;2023-01-20T03:35:48;90.93;;;35.58;;
38653;SDS011;24413;52.450;20.706;2023-01-20T03:38:14;91.38;;;36.08;;
38653;SDS011;24413;52.450;20.706;2023-01-20T03:40:45;99.90;;;39.08;;
38653;SDS011;24413;52.450;20.706;2023-01-20T03:43:19;96.68;;;36.20;;
38653;SDS011;24413;52.450;20.706;2023-01-20T03:45:54;92.25;;;34.40;;
38653;SDS011;24413;52.450;20.706;2023-01-20T03:48:25;102.63;;;34.75;;
38653;SDS011;24413;52.450;20.706;2023-01-20T03:50:56;95.85;;;35.47;;
38653;SDS011;24413;52.450;20.706;2023-01-20T03:58:26;108.25;;;37.92;;
38653;SDS011;24413;52.450;20.706;2023-01-20T04:00:52;116.50;;;38.67;;
38653;SDS011;24413;52.450;20.706;2023-01-20T04:03:20;110.25;;;38.05;;
38653;SDS011;24413;52.450;20.706;2023-01-20T04:05:47;110.28;;;37.70;;
38653;SDS011;24413;52.450;20.706;2023-01-20T04:08:13;109.85;;;36.75;;
38653;SDS011;24413;52.450;20.706;2023-01-20T04:10:40;104.22;;;38.28;;
38653;SDS011;24413;52.450;20.706;2023-01-20T04:13:06;121.65;;;39.42;;
38653;SDS011;24413;52.450;20.706;2023-01-20T04:15:32;119.82;;;39.08;;
38653;SDS011;24413;52.450;20.706;2023-01-20T04:18:18;121.10;;;38.50;;
38653;SDS011;24413;52.450;20.706;2023-01-20T04:20:43;123.25;;;38.95;;
38653;SDS011;24413;52.450;20.706;2023-01-20T04:26:02;113.47;;;38.38;;
38653;SDS011;24413;52.450;20.706;2023-01-20T04:28:30;123.10;;;40.05;;
38653;SDS011;24413;52.450;20.706;2023-01-20T04:30:56;117.97;;;39.20;;
38653;SDS011;24413;52.450;20.706;2023-01-20T04:33:21;129.27;;;38.45;;
38653;SDS011;24413;52.450;20.706;2023-01-20T04:35:47;125.68;;;39.83;;
38653;SDS011;24413;52.450;20.706;2023-01-20T04:38:12;128.98;;;39.40;;
38653;SDS011;24413;52.450;20.706;2023-01-20T04:40:37;132.07;;;41.03;;
38653;SDS011;24413;52.450;20.706;2023-01-20T04:43:03;133.77;;;40.10;;
38653;SDS011;24413;52.450;20.706;2023-01-20T04:45:28;127.07;;;40.38;;
38653;SDS011;24413;52.450;20.706;2023-01-20T04:47:53;127.70;;;38.22;;
38653;SDS011;24413;52.450;20.706;2023-01-20T04:50:19;130.20;;;41.55;;
38653;SDS011;24413;52.450;20.706;2023-01-20T04:52:44;118.88;;;39.00;;
38653;SDS011;24413;52.450;20.706;2023-01-20T04:55:09;120.50;;;38.50;;
38653;SDS011;24413;52.450;20.706;2023-01-20T04:57:35;120.97;;;37.28;;
38653;SDS011;24413;52.450;20.706;2023-01-20T05:00:00;105.97;;;37.17;;
38653;SDS011;24413;52.450;20.706;2023-01-20T05:02:26;108.20;;;36.83;;
38653;SDS011;24413;52.450;20.706;2023-01-20T05:04:51;123.03;;;40.58;;
38653;SDS011;24413;52.450;20.706;2023-01-20T05:07:16;116.47;;;37.92;;
38653;SDS011;24413;52.450;20.706;2023-01-20T05:09:42;112.80;;;36.45;;
38653;SDS011;24413;52.450;20.706;2023-01-20T05:12:07;110.75;;;36.85;;
38653;SDS011;24413;52.450;20.706;2023-01-20T05:14:32;106.53;;;36.70;;
38653;SDS011;24413;52.450;20.706;2023-01-20T05:16:58;110.30;;;36.92;;
38653;SDS011;24413;52.450;20.706;2023-01-20T05:19:23;107.25;;;36.42;;
38653;SDS011;24413;52.450;20.706;2023-01-20T05:21:48;118.93;;;38.80;;
38653;SDS011;24413;52.450;20.706;2023-01-20T05:24:14;107.25;;;38.53;;
38653;SDS011;24413;52.450;20.706;2023-01-20T05:26:39;100.63;;;36.53;;
38653;SDS011;24413;52.450;20.706;2023-01-20T05:29:04;114.35;;;38.00;;
38653;SDS011;24413;52.450;20.706;2023-01-20T05:31:30;110.70;;;38.25;;
38653;SDS011;24413;52.450;20.706;2023-01-20T05:33:56;105.43;;;37.63;;
38653;SDS011;24413;52.450;20.706;2023-01-20T05:36:21;92.32;;;34.20;;
38653;SDS011;24413;52.450;20.706;2023-01-20T05:38:46;110.90;;;39.33;;
38653;SDS011;24413;52.450;20.706;2023-01-20T05:41:12;112.57;;;38.55;;
38653;SDS011;24413;52.450;20.706;2023-01-20T05:43:37;102.32;;;37.15;;
38653;SDS011;24413;52.450;20.706;2023-01-20T05:46:03;108.40;;;39.22;;
38653;SDS011;24413;52.450;20.706;2023-01-20T05:48:28;108.32;;;38.22;;
38653;SDS011;24413;52.450;20.706;2023-01-20T05:50:53;103.38;;;38.15;;
38653;SDS011;24413;52.450;20.706;2023-01-20T05:53:19;107.97;;;37.97;;
38653;SDS011;24413;52.450;20.706;2023-01-20T05:55:44;102.35;;;38.45;;
38653;SDS011;24413;52.450;20.706;2023-01-20T05:58:10;110.72;;;41.05;;
38653;SDS011;24413;52.450;20.706;2023-01-20T06:00:35;99.20;;;37.80;;
38653;SDS011;24413;52.450;20.706;2023-01-20T06:03:00;97.53;;;37.63;;
38653;SDS011;24413;52.450;20.706;2023-01-20T06:05:26;90.35;;;35.00;;
38653;SDS011;24413;52.450;20.706;2023-01-20T06:07:53;104.88;;;36.88;;
38653;SDS011;24413;52.450;20.706;2023-01-20T06:10:18;108.78;;;38.28;;
38653;SDS011;24413;52.450;20.706;2023-01-20T06:12:43;104.30;;;38.10;;
38653;SDS011;24413;52.450;20.706;2023-01-20T06:15:14;101.22;;;36.05;;
38653;SDS011;24413;52.450;20.706;2023-01-20T06:17:40;97.47;;;38.00;;
38653;SDS011;24413;52.450;20.706;2023-01-20T06:20:05;101.57;;;39.03;;
38653;SDS011;24413;52.450;20.706;2023-01-20T06:22:31;107.90;;;39.72;;
38653;SDS011;24413;52.450;20.706;2023-01-20T06:24:56;100.45;;;38.47;;
38653;SDS011;24413;52.450;20.706;2023-01-20T06:27:22;107.03;;;39.72;;
38653;SDS011;24413;52.450;20.706;2023-01-20T06:29:47;110.60;;;37.80;;
38653;SDS011;24413;52.450;20.706;2023-01-20T06:32:12;103.15;;;36.58;;
38653;SDS011;24413;52.450;20.706;2023-01-20T06:34:37;103.00;;;39.47;;
38653;SDS011;24413;52.450;20.706;2023-01-20T06:37:03;106.15;;;40.13;;
38653;SDS011;24413;52.450;20.706;2023-01-20T06:39:28;108.25;;;38.40;;
38653;SDS011;24413;52.450;20.706;2023-01-20T06:41:57;112.32;;;41.13;;
38653;SDS011;24413;52.450;20.706;2023-01-20T06:44:23;99.15;;;37.58;;
38653;SDS011;24413;52.450;20.706;2023-01-20T06:46:49;106.50;;;38.50;;
38653;SDS011;24413;52.450;20.706;2023-01-20T06:49:16;106.20;;;37.60;;
38653;SDS011;24413;52.450;20.706;2023-01-20T06:51:41;107.47;;;38.28;;
38653;SDS011;24413;52.450;20.706;2023-01-20T06:54:07;107.18;;;39.20;;
38653;SDS011;24413;52.450;20.706;2023-01-20T06:56:32;104.43;;;38.78;;
38653;SDS011;24413;52.450;20.706;2023-01-20T06:58:58;96.35;;;39.55;;
38653;SDS011;24413;52.450;20.706;2023-01-20T07:01:24;106.50;;;39.08;;
38653;SDS011;24413;52.450;20.706;2023-01-20T07:03:49;97.07;;;39.25;;
38653;SDS011;24413;52.450;20.706;2023-01-20T07:06:16;99.13;;;38.92;;
38653;SDS011;24413;52.450;20.706;2023-01-20T07:08:45;113.15;;;41.58;;
38653;SDS011;24413;52.450;20.706;2023-01-20T07:11:10;98.78;;;40.15;;
38653;SDS011;24413;52.450;20.706;2023-01-20T07:13:36;107.25;;;38.22;;
38653;SDS011;24413;52.450;20.706;2023-01-20T07:16:01;97.00;;;39.60;;
38653;SDS011;24413;52.450;20.706;2023-01-20T07:18:26;115.10;;;40.53;;
38653;SDS011;24413;52.450;20.706;2023-01-20T07:20:55;105.78;;;41.22;;
38653;SDS011;24413;52.450;20.706;2023-01-20T07:23:21;111.68;;;38.58;;
38653;SDS011;24413;52.450;20.706;2023-01-20T07:25:47;106.15;;;39.95;;
38653;SDS011;24413;52.450;20.706;2023-01-20T07:28:12;117.03;;;40.20;;
38653;SDS011;24413;52.450;20.706;2023-01-20T07:30:42;106.30;;;40.30;;
38653;SDS011;24413;52.450;20.706;2023-01-20T07:33:07;95.07;;;37.47;;
38653;SDS011;24413;52.450;20.706;2023-01-20T07:35:32;95.88;;;39.47;;
38653;SDS011;24413;52.450;20.706;2023-01-20T07:37:58;110.45;;;40.15;;
38653;SDS011;24413;52.450;20.706;2023-01-20T07:40:23;115.22;;;40.75;;
38653;SDS011;24413;52.450;20.706;2023-01-20T07:42:48;105.40;;;38.83;;
38653;SDS011;24413;52.450;20.706;2023-01-20T07:45:14;102.65;;;39.60;;
38653;SDS011;24413;52.450;20.706;2023-01-20T07:47:40;92.45;;;39.92;;
38653;SDS011;24413;52.450;20.706;2023-01-20T07:50:05;99.50;;;39.17;;
38653;SDS011;24413;52.450;20.706;2023-01-20T07:52:30;119.03;;;42.78;;
38653;SDS011;24413;52.450;20.706;2023-01-20T07:54:56;108.38;;;39.75;;
38653;SDS011;24413;52.450;20.706;2023-01-20T07:57:21;99.15;;;40.22;;
38653;SDS011;24413;52.450;20.706;2023-01-20T07:59:46;118.80;;;42.53;;
38653;SDS011;24413;52.450;20.706;2023-01-20T08:02:12;101.63;;;41.08;;
38653;SDS011;24413;52.450;20.706;2023-01-20T08:04:37;98.38;;;38.65;;
38653;SDS011;24413;52.450;20.706;2023-01-20T08:07:02;96.10;;;39.05;;
38653;SDS011;24413;52.450;20.706;2023-01-20T08:09:27;94.45;;;37.33;;
38653;SDS011;24413;52.450;20.706;2023-01-20T08:11:53;85.82;;;36.78;;
38653;SDS011;24413;52.450;20.706;2023-01-20T08:14:18;98.15;;;38.08;;
38653;SDS011;24413;52.450;20.706;2023-01-20T08:16:44;87.07;;;36.25;;
38653;SDS011;24413;52.450;20.706;2023-01-20T08:19:09;88.82;;;36.67;;
38653;SDS011;24413;52.450;20.706;2023-01-20T08:21:34;90.65;;;37.50;;
38653;SDS011;24413;52.450;20.706;2023-01-20T08:24:01;92.38;;;38.33;;
38653;SDS011;24413;52.450;20.706;2023-01-20T08:26:27;87.88;;;36.80;;
38653;SDS011;24413;52.450;20.706;2023-01-20T08:28:53;85.50;;;36.78;;
38653;SDS011;24413;52.450;20.706;2023-01-20T08:31:20;80.47;;;34.42;;
38653;SDS011;24413;52.450;20.706;2023-01-20T08:33:46;88.13;;;35.53;;
38653;SDS011;24413;52.450;20.706;2023-01-20T08:36:13;86.45;;;35.35;;
38653;SDS011;24413;52.450;20.706;2023-01-20T08:38:39;82.53;;;35.20;;
38653;SDS011;24413;52.450;20.706;2023-01-20T08:41:06;96.75;;;38.00;;
38653;SDS011;24413;52.450;20.706;2023-01-20T08:43:31;83.47;;;35.00;;
38653;SDS011;24413;52.450;20.706;2023-01-20T08:46:03;77.18;;;34.80;;
38653;SDS011;24413;52.450;20.706;2023-01-20T08:48:28;86.70;;;34.38;;
38653;SDS011;24413;52.450;20.706;2023-01-20T08:50:54;93.50;;;36.22;;
38653;SDS011;24413;52.450;20.706;2023-01-20T08:53:19;71.65;;;34.47;;
38653;SDS011;24413;52.450;20.706;2023-01-20T08:55:52;80.28;;;34.95;;
38653;SDS011;24413;52.450;20.706;2023-01-20T08:58:18;79.38;;;35.08;;
38653;SDS011;24413;52.450;20.706;2023-01-20T09:00:43;80.00;;;36.35;;
38653;SDS011;24413;52.450;20.706;2023-01-20T09:03:08;77.00;;;35.03;;
38653;SDS011;24413;52.450;20.706;2023-01-20T09:05:34;73.30;;;34.17;;
38653;SDS011;24413;52.450;20.706;2023-01-20T09:08:00;83.15;;;37.65;;
38653;SDS011;24413;52.450;20.706;2023-01-20T09:10:25;79.88;;;34.75;;
38653;SDS011;24413;52.450;20.706;2023-01-20T09:12:50;81.90;;;34.83;;
38653;SDS011;24413;52.450;20.706;2023-01-20T09:15:16;77.90;;;34.70;;
38653;SDS011;24413;52.450;20.706;2023-01-20T09:17:42;59.13;;;29.63;;
38653;SDS011;24413;52.450;20.706;2023-01-20T09:20:08;55.95;;;26.85;;
38653;SDS011;24413;52.450;20.706;2023-01-20T09:22:33;45.85;;;24.55;;
38653;SDS011;24413;52.450;20.706;2023-01-20T09:24:59;42.63;;;24.67;;
38653;SDS011;24413;52.450;20.706;2023-01-20T09:27:25;46.70;;;24.92;;
38653;SDS011;24413;52.450;20.706;2023-01-20T09:29:50;51.90;;;24.15;;
38653;SDS011;24413;52.450;20.706;2023-01-20T09:32:16;102.20;;;28.95;;
38653;SDS011;24413;52.450;20.706;2023-01-20T09:34:42;60.67;;;25.98;;
38653;SDS011;24413;52.450;20.706;2023-01-20T09:37:07;74.10;;;25.23;;
38653;SDS011;24413;52.450;20.706;2023-01-20T09:39:51;71.47;;;26.42;;
38653;SDS011;24413;52.450;20.706;2023-01-20T09:45:27;45.22;;;22.15;;
38653;SDS011;24413;52.450;20.706;2023-01-20T09:47:58;54.40;;;23.27;;
38653;SDS011;24413;52.450;20.706;2023-01-20T09:55:42;35.00;;;19.75;;
38653;SDS011;24413;52.450;20.706;2023-01-20T10:03:36;34.38;;;19.40;;
38653;SDS011;24413;52.450;20.706;2023-01-20T10:06:12;50.08;;;20.75;;
38653;SDS011;24413;52.450;20.706;2023-01-20T10:08:45;44.38;;;19.63;;
38653;SDS011;24413;52.450;20.706;2023-01-20T10:11:12;35.50;;;18.92;;
38653;SDS011;24413;52.450;20.706;2023-01-20T10:13:46;34.20;;;18.70;;
38653;SDS011;24413;52.450;20.706;2023-01-20T10:19:03;32.33;;;19.05;;
38653;SDS011;24413;52.450;20.706;2023-01-20T10:21:36;31.95;;;19.27;;
38653;SDS011;24413;52.450;20.706;2023-01-20T10:24:14;33.80;;;17.38;;
38653;SDS011;24413;52.450;20.706;2023-01-20T10:26:43;33.67;;;18.70;;
38653;SDS011;24413;52.450;20.706;2023-01-20T10:29:14;30.85;;;18.95;;
38653;SDS011;24413;52.450;20.706;2023-01-20T10:31:47;33.35;;;20.70;;
38653;SDS011;24413;52.450;20.706;2023-01-20T10:34:16;32.08;;;19.92;;
38653;SDS011;24413;52.450;20.706;2023-01-20T10:36:43;35.00;;;19.98;;
38653;SDS011;24413;52.450;20.706;2023-01-20T10:39:12;32.25;;;21.02;;
38653;SDS011;24413;52.450;20.706;2023-01-20T10:41:45;38.47;;;22.65;;
38653;SDS011;24413;52.450;20.706;2023-01-20T10:44:15;37.33;;;21.45;;
38653;SDS011;24413;52.450;20.706;2023-01-20T10:57:06;37.53;;;22.25;;
38653;SDS011;24413;52.450;20.706;2023-01-20T10:59:36;34.70;;;21.95;;
38653;SDS011;24413;52.450;20.706;2023-01-20T11:02:15;39.60;;;22.08;;
38653;SDS011;24413;52.450;20.706;2023-01-20T11:04:41;42.72;;;23.17;;
38653;SDS011;24413;52.450;20.706;2023-01-20T11:07:08;36.63;;;22.27;;
38653;SDS011;24413;52.450;20.706;2023-01-20T11:09:36;37.03;;;22.75;;
38653;SDS011;24413;52.450;20.706;2023-01-20T11:12:03;41.00;;;24.02;;
38653;SDS011;24413;52.450;20.706;2023-01-20T11:14:30;40.30;;;24.35;;
38653;SDS011;24413;52.450;20.706;2023-01-20T11:16:58;38.90;;;24.05;;
38653;SDS011;24413;52.450;20.706;2023-01-20T11:19:26;40.33;;;23.55;;
38653;SDS011;24413;52.450;20.706;2023-01-20T11:21:51;42.80;;;24.58;;
38653;SDS011;24413;52.450;20.706;2023-01-20T11:27:01;37.45;;;21.48;;
38653;SDS011;24413;52.450;20.706;2023-01-20T11:29:27;38.50;;;21.73;;
38653;SDS011;24413;52.450;20.706;2023-01-20T11:31:53;37.85;;;19.65;;
38653;SDS011;24413;52.450;20.706;2023-01-20T11:34:21;32.15;;;20.13;;
38653;SDS011;24413;52.450;20.706;2023-01-20T11:36:47;38.13;;;20.77;;
38653;SDS011;24413;52.450;20.706;2023-01-20T11:44:51;36.03;;;19.05;;
38653;SDS011;24413;52.450;20.706;2023-01-20T11:47:21;32.90;;;18.10;;
38653;SDS011;24413;52.450;20.706;2023-01-20T11:52:28;37.50;;;21.17;;
38653;SDS011;24413;52.450;20.706;2023-01-20T11:57:53;39.83;;;19.67;;
38653;SDS011;24413;52.450;20.706;2023-01-20T12:08:16;28.73;;;16.73;;
38653;SDS011;24413;52.450;20.706;2023-01-20T12:10:45;33.35;;;18.38;;
38653;SDS011;24413;52.450;20.706;2023-01-20T12:15:41;33.03;;;18.80;;
38653;SDS011;24413;52.450;20.706;2023-01-20T12:20:45;35.92;;;17.85;;
38653;SDS011;24413;52.450;20.706;2023-01-20T12:23:17;30.35;;;16.42;;
38653;SDS011;24413;52.450;20.706;2023-01-20T12:25:51;30.27;;;16.75;;
38653;SDS011;24413;52.450;20.706;2023-01-20T12:28:22;32.67;;;16.88;;
38653;SDS011;24413;52.450;20.706;2023-01-20T12:30:50;36.33;;;17.70;;
38653;SDS011;24413;52.450;20.706;2023-01-20T12:33:20;26.90;;;15.77;;
38653;SDS011;24413;52.450;20.706;2023-01-20T12:38:32;29.15;;;16.73;;
38653;SDS011;24413;52.450;20.706;2023-01-20T12:41:01;31.00;;;17.15;;
38653;SDS011;24413;52.450;20.706;2023-01-20T12:48:44;28.15;;;17.45;;
38653;SDS011;24413;52.450;20.706;2023-01-20T12:53:58;34.15;;;17.65;;
38653;SDS011;24413;52.450;20.706;2023-01-20T12:56:39;33.88;;;16.88;;
38653;SDS011;24413;52.450;20.706;2023-01-20T13:17:02;33.10;;;18.88;;
38653;SDS011;24413;52.450;20.706;2023-01-20T13:19:28;39.33;;;18.73;;
38653;SDS011;24413;52.450;20.706;2023-01-20T13:21:55;38.70;;;19.65;;
38653;SDS011;24413;52.450;20.706;2023-01-20T13:24:21;50.33;;;23.52;;
38653;SDS011;24413;52.450;20.706;2023-01-20T13:26:54;41.85;;;21.00;;
38653;SDS011;24413;52.450;20.706;2023-01-20T13:30:06;44.67;;;21.30;;
38653;SDS011;24413;52.450;20.706;2023-01-20T13:32:24;47.00;;;22.80;;
38653;SDS011;24413;52.450;20.706;2023-01-20T13:34:50;41.10;;;20.35;;
38653;SDS011;24413;52.450;20.706;2023-01-20T13:39:44;35.33;;;19.17;;
38653;SDS011;24413;52.450;20.706;2023-01-20T13:42:26;45.80;;;21.58;;
38653;SDS011;24413;52.450;20.706;2023-01-20T13:48:00;37.80;;;21.33;;
38653;SDS011;24413;52.450;20.706;2023-01-20T13:55:27;37.95;;;21.05;;
38653;SDS011;24413;52.450;20.706;2023-01-20T13:57:53;39.00;;;20.90;;
38653;SDS011;24413;52.450;20.706;2023-01-20T14:00:22;42.65;;;21.10;;
38653;SDS011;24413;52.450;20.706;2023-01-20T14:02:48;47.05;;;20.50;;
38653;SDS011;24413;52.450;20.706;2023-01-20T14:05:24;38.53;;;21.45;;
38653;SDS011;24413;52.450;20.706;2023-01-20T14:07:50;39.60;;;20.88;;
38653;SDS011;24413;52.450;20.706;2023-01-20T14:10:15;43.05;;;20.98;;
38653;SDS011;24413;52.450;20.706;2023-01-20T14:12:47;47.50;;;21.67;;
38653;SDS011;24413;52.450;20.706;2023-01-20T14:15:23;38.05;;;20.58;;
38653;SDS011;24413;52.450;20.706;2023-01-20T14:17:53;43.03;;;22.50;;
38653;SDS011;24413;52.450;20.706;2023-01-20T14:20:19;46.55;;;22.98;;
38653;SDS011;24413;52.450;20.706;2023-01-20T14:22:47;56.42;;;24.15;;
38653;SDS011;24413;52.450;20.706;2023-01-20T14:25:23;51.33;;;24.25;;
38653;SDS011;24413;52.450;20.706;2023-01-20T14:27:49;45.17;;;25.10;;
38653;SDS011;24413;52.450;20.706;2023-01-20T14:30:21;50.67;;;25.70;;
38653;SDS011;24413;52.450;20.706;2023-01-20T14:32:47;57.65;;;25.02;;
38653;SDS011;24413;52.450;20.706;2023-01-20T14:37:42;67.88;;;32.05;;
38653;SDS011;24413;52.450;20.706;2023-01-20T14:42:35;53.33;;;26.00;;
38653;SDS011;24413;52.450;20.706;2023-01-20T14:45:24;56.80;;;27.00;;
38653;SDS011;24413;52.450;20.706;2023-01-20T14:47:48;48.22;;;24.98;;
38653;SDS011;24413;52.450;20.706;2023-01-20T14:50:14;44.20;;;24.85;;
38653;SDS011;24413;52.450;20.706;2023-01-20T14:52:40;49.83;;;26.63;;
38653;SDS011;24413;52.450;20.706;2023-01-20T14:55:24;54.25;;;25.67;;
38653;SDS011;24413;52.450;20.706;2023-01-20T14:57:50;62.35;;;28.25;;
38653;SDS011;24413;52.450;20.706;2023-01-20T15:00:25;52.58;;;24.05;;
38653;SDS011;24413;52.450;20.706;2023-01-20T15:03:02;44.33;;;22.73;;
38653;SDS011;24413;52.450;20.706;2023-01-20T15:08:18;43.03;;;22.15;;
38653;SDS011;24413;52.450;20.706;2023-01-20T15:13:32;44.45;;;23.90;;
38653;SDS011;24413;52.450;20.706;2023-01-20T15:18:38;52.17;;;28.08;;
38653;SDS011;24413;52.450;20.706;2023-01-20T15:23:47;51.45;;;26.90;;
38653;SDS011;24413;52.450;20.706;2023-01-20T15:26:22;35.95;;;20.98;;
38653;SDS011;24413;52.450;20.706;2023-01-20T15:28:48;36.40;;;22.00;;
38653;SDS011;24413;52.450;20.706;2023-01-20T15:31:14;26.95;;;17.52;;
38653;SDS011;24413;52.450;20.706;2023-01-20T15:33:40;34.90;;;19.10;;
38653;SDS011;24413;52.450;20.706;2023-01-20T15:36:16;30.23;;;17.77;;
38653;SDS011;24413;52.450;20.706;2023-01-20T15:38:42;31.38;;;17.98;;
38653;SDS011;24413;52.450;20.706;2023-01-20T15:41:09;26.42;;;16.77;;
38653;SDS011;24413;52.450;20.706;2023-01-20T15:43:38;28.95;;;17.60;;
38653;SDS011;24413;52.450;20.706;2023-01-20T15:46:11;32.53;;;19.80;;
38653;SDS011;24413;52.450;20.706;2023-01-20T15:48:37;30.75;;;19.08;;
38653;SDS011;24413;52.450;20.706;2023-01-20T15:51:02;32.55;;;19.50;;
38653;SDS011;24413;52.450;20.706;2023-01-20T15:53:29;35.40;;;21.63;;
38653;SDS011;24413;52.450;20.706;2023-01-20T15:55:54;34.35;;;21.92;;
38653;SDS011;24413;52.450;20.706;2023-01-20T15:58:24;31.60;;;19.58;;
38653;SDS011;24413;52.450;20.706;2023-01-20T16:00:50;25.00;;;16.15;;
38653;SDS011;24413;52.450;20.706;2023-01-20T16:03:19;29.35;;;17.65;;
38653;SDS011;24413;52.450;20.706;2023-01-20T16:05:50;31.90;;;17.92;;
38653;SDS011;24413;52.450;20.706;2023-01-20T16:08:16;31.67;;;18.58;;
38653;SDS011;24413;52.450;20.706;2023-01-20T16:10:44;32.50;;;18.92;;
38653;SDS011;24413;52.450;20.706;2023-01-20T16:13:10;30.52;;;18.85;;
38653;SDS011;24413;52.450;20.706;2023-01-20T16:15:36;30.55;;;19.45;;
38653;SDS011;24413;52.450;20.706;2023-01-20T16:18:02;37.53;;;18.25;;
38653;SDS011;24413;52.450;20.706;2023-01-20T16:20:27;31.73;;;19.75;;
38653;SDS011;24413;52.450;20.706;2023-01-20T16:22:53;42.70;;;20.40;;